FACTFKYS

Guest
Details From FACT - Cape Town International
To FKYS - Yaounde Nsimalen
Flight Number -
Tags Generated
Created
Modified
Stats Distance 2,300 nm / 4,260 km
Max Altitude 0 ft / 0 m
Waypoints 4
Social Downloads 0
Likes 0
Share VATSIM

Download

Looking for another format? Having issues loading an existing format? Contact us
Advertisement - Login to hide

Notes

Generated

Route

FACT ETKOT NLY FKYS

ID Type Via Altitude Latitude Longitude Leg Dist Tot Dist Heading (true) Name
O FACT APT - 0 ft / 0 m -33.96149˚ 18.59772˚ - 0 nm - -
ETKOT FIX - 0 ft / 0 m -30.53829˚ 18.06445˚ 207 nm 207 nm 352° / 353° -
NLY VOR - 0 ft / 0 m 3.72581˚ 11.55647˚ 2091 nm 2298 nm 349° / 350° YAOUNDE NSIMALEN VOR-DME
O FKYS APT - 0 ft / 0 m 3.70741˚ 11.55063˚ 1 nm 2299 nm 198° / 198° -

Altitude Profile

Advertisement - Login to hide

Weather


0- 5 10 15 20 25 30 35+ Temperature / ° C

Clouds and Precipitation
Forecast for 2018-05-23 12:00 UTC. Updated 13 minutes ago

Ground ~20,000 ft ~40,000 ft Winds

FACT

Details ICAO FACT (CPT)
Name Cape Town International
Region South Africa
Timezone Africa/Johannesburg (UTC+2.0)
Stats Elevation 151 ft / 46 m (AMSL)
Location -33.970501° 18.604405°
Runways 2
Magnetic Variation 25.393° W

METAR

FACT 230900Z 34021KT 9999 BKN025 18/14 Q1019 NOSIG

Decode

TAF

TAF FACT 222200Z 2300/2406 32015KT 9999 SCT035 FM230600 35017KT 9999 SCT012 BKN030 PROB30 TEMPO 2316/2404 4000 -DZ BKN012 BECMG 2404/2406 16009KT TEMPO 2404/2406 2000 RA BKN006 TX19/2312Z TN12/2306Z

Decode

Departure Runways

ID Width Length Bearing (true) Bearing (mag) Surface Threshold Offset Overrun Length
01 200 ft / 61 m 10,527 ft / 3,209 m 345.27° 10.66° Asphalt 0 ft / 0 m 195 ft / 59 m
16 151 ft / 46 m 5,586 ft / 1,703 m 135.35° 160.74° Asphalt 300 ft / 91 m 0 ft / 0 m
19 200 ft / 61 m 10,527 ft / 3,209 m 165.27° 190.66° Asphalt 0 ft / 0 m 195 ft / 59 m
34 151 ft / 46 m 5,586 ft / 1,703 m 315.35° 340.74° Asphalt 300 ft / 91 m 0 ft / 0 m

FKYS

Details ICAO FKYS (NSI)
Name YAOUNDE NSIMALEN
Region Cameroon
Timezone Africa/Douala (UTC+1.0)
Stats Elevation 2,278 ft / 694 m (AMSL)
Location 3.722554° 11.553270°
Runways 1
Magnetic Variation 0.638° W

METAR

FKYS 230900Z /////KT 9999 BKN016 27/22 Q1019 NOSIG

Decode

TAF

TAF FKYS 230500Z 2306/2406 VRB04KT 8000 FEW003 BKN006 BECMG 2308/2310 BKN016 TEMPO 2314/2321 TS BKN013 FEW020CB PROB30 2314/2319 3000 TSRA BECMG 2321/2322 BKN006

Decode

Destination Runways

ID Width Length Bearing (true) Bearing (mag) Surface Threshold Offset Overrun Length
01 148 ft / 45 m 11,220 ft / 3,420 m 9.87° 10.51° Asphalt 0 ft / 0 m 200 ft / 61 m
19 148 ft / 45 m 11,220 ft / 3,420 m 189.87° 190.51° Asphalt 0 ft / 0 m 200 ft / 61 m